sensor_id;sensor_type;location;lat;lon;timestamp;pressure;altitude;pressure_sealevel;temperature;humidity
35716;BME280;21840;44.920;8.616;2022-10-16T00:01:34;100783.88;;;22.82;54.72
35716;BME280;21840;44.920;8.616;2022-10-16T00:04:01;100782.44;;;22.80;54.60
35716;BME280;21840;44.920;8.616;2022-10-16T00:06:29;100784.09;;;22.88;54.58
35716;BME280;21840;44.920;8.616;2022-10-16T00:08:55;100782.22;;;22.88;54.16
35716;BME280;21840;44.920;8.616;2022-10-16T00:11:33;100789.63;;;22.86;54.66
35716;BME280;21840;44.920;8.616;2022-10-16T00:14:00;100784.69;;;22.70;54.84
35716;BME280;21840;44.920;8.616;2022-10-16T00:16:27;100786.16;;;22.86;54.43
35716;BME280;21840;44.920;8.616;2022-10-16T00:18:53;100786.56;;;22.82;54.50
35716;BME280;21840;44.920;8.616;2022-10-16T00:21:21;100783.69;;;22.84;54.37
35716;BME280;21840;44.920;8.616;2022-10-16T00:23:51;100785.31;;;22.65;55.40
35716;BME280;21840;44.920;8.616;2022-10-16T00:26:17;100784.94;;;22.81;55.16
35716;BME280;21840;44.920;8.616;2022-10-16T00:28:48;100783.66;;;22.71;55.74
35716;BME280;21840;44.920;8.616;2022-10-16T00:31:15;100773.78;;;22.85;55.06
35716;BME280;21840;44.920;8.616;2022-10-16T00:33:41;100780.38;;;22.82;55.21
35716;BME280;21840;44.920;8.616;2022-10-16T00:36:10;100778.75;;;22.74;55.21
35716;BME280;21840;44.920;8.616;2022-10-16T00:38:37;100779.97;;;22.78;55.12
35716;BME280;21840;44.920;8.616;2022-10-16T00:41:12;100776.25;;;22.73;54.96
35716;BME280;21840;44.920;8.616;2022-10-16T00:46:16;100788.38;;;22.55;55.80
35716;BME280;21840;44.920;8.616;2022-10-16T00:51:19;100787.09;;;22.38;56.56
35716;BME280;21840;44.920;8.616;2022-10-16T00:53:48;100795.38;;;22.56;55.98
35716;BME280;21840;44.920;8.616;2022-10-16T00:56:14;100790.25;;;22.68;55.95
35716;BME280;21840;44.920;8.616;2022-10-16T00:58:40;100791.91;;;22.63;55.88
35716;BME280;21840;44.920;8.616;2022-10-16T01:01:05;100789.84;;;22.65;55.48
35716;BME280;21840;44.920;8.616;2022-10-16T01:03:34;100791.25;;;22.54;55.89
35716;BME280;21840;44.920;8.616;2022-10-16T01:08:57;100794.56;;;22.49;56.11
35716;BME280;21840;44.920;8.616;2022-10-16T01:22:00;100802.78;;;22.61;56.09
35716;BME280;21840;44.920;8.616;2022-10-16T01:24:39;100806.31;;;22.61;56.08
35716;BME280;21840;44.920;8.616;2022-10-16T01:29:53;100806.47;;;22.40;56.60
35716;BME280;21840;44.920;8.616;2022-10-16T01:32:32;100808.72;;;22.43;56.64
35716;BME280;21840;44.920;8.616;2022-10-16T01:35:05;100804.34;;;22.22;57.02
35716;BME280;21840;44.920;8.616;2022-10-16T01:37:37;100804.06;;;22.10;57.20
35716;BME280;21840;44.920;8.616;2022-10-16T01:40:12;100800.88;;;22.22;57.59
35716;BME280;21840;44.920;8.616;2022-10-16T01:42:44;100807.47;;;22.32;57.37
35716;BME280;21840;44.920;8.616;2022-10-16T01:45:14;100809.56;;;22.37;56.83
35716;BME280;21840;44.920;8.616;2022-10-16T01:47:43;100815.06;;;22.29;57.21
35716;BME280;21840;44.920;8.616;2022-10-16T01:50:09;100810.94;;;22.20;57.75
35716;BME280;21840;44.920;8.616;2022-10-16T01:52:39;100820.94;;;22.11;57.90
35716;BME280;21840;44.920;8.616;2022-10-16T01:55:08;100815.47;;;22.26;57.52
35716;BME280;21840;44.920;8.616;2022-10-16T01:57:38;100814.44;;;21.85;58.59
35716;BME280;21840;44.920;8.616;2022-10-16T02:00:09;100815.06;;;22.22;57.73
35716;BME280;21840;44.920;8.616;2022-10-16T02:02:41;100812.38;;;22.22;57.59
35716;BME280;21840;44.920;8.616;2022-10-16T02:05:26;100812.59;;;22.27;57.38
35716;BME280;21840;44.920;8.616;2022-10-16T02:07:54;100820.63;;;22.34;56.89
35716;BME280;21840;44.920;8.616;2022-10-16T02:10:19;100817.31;;;22.25;57.70
35716;BME280;21840;44.920;8.616;2022-10-16T02:12:55;100823.94;;;22.29;57.40
35716;BME280;21840;44.920;8.616;2022-10-16T02:15:21;100824.97;;;22.35;57.13
35716;BME280;21840;44.920;8.616;2022-10-16T02:17:47;100824.75;;;22.30;56.78
35716;BME280;21840;44.920;8.616;2022-10-16T02:20:12;100830.06;;;22.23;56.77
35716;BME280;21840;44.920;8.616;2022-10-16T02:22:41;100821.63;;;22.20;56.74
35716;BME280;21840;44.920;8.616;2022-10-16T02:25:19;100823.91;;;22.23;56.86
35716;BME280;21840;44.920;8.616;2022-10-16T02:32:53;100831.22;;;22.07;57.03
35716;BME280;21840;44.920;8.616;2022-10-16T02:35:22;100827.22;;;22.25;56.92
35716;BME280;21840;44.920;8.616;2022-10-16T02:37:49;100826.31;;;22.17;57.54
35716;BME280;21840;44.920;8.616;2022-10-16T02:40:16;100821.63;;;22.20;57.54
35716;BME280;21840;44.920;8.616;2022-10-16T02:42:42;100830.00;;;22.10;57.25
35716;BME280;21840;44.920;8.616;2022-10-16T02:45:10;100829.88;;;22.25;56.60
35716;BME280;21840;44.920;8.616;2022-10-16T02:47:35;100835.66;;;22.22;56.50
35716;BME280;21840;44.920;8.616;2022-10-16T02:50:01;100822.50;;;22.27;56.54
35716;BME280;21840;44.920;8.616;2022-10-16T02:52:26;100826.13;;;22.19;56.51
35716;BME280;21840;44.920;8.616;2022-10-16T02:54:52;100831.63;;;22.04;56.77
35716;BME280;21840;44.920;8.616;2022-10-16T02:57:17;100834.53;;;22.09;56.63
35716;BME280;21840;44.920;8.616;2022-10-16T02:59:44;100829.69;;;21.91;57.01
35716;BME280;21840;44.920;8.616;2022-10-16T03:02:10;100840.88;;;22.08;56.84
35716;BME280;21840;44.920;8.616;2022-10-16T03:04:35;100836.66;;;22.21;56.80
35716;BME280;21840;44.920;8.616;2022-10-16T03:07:01;100828.03;;;22.25;56.28
35716;BME280;21840;44.920;8.616;2022-10-16T03:09:27;100849.84;;;22.22;56.56
35716;BME280;21840;44.920;8.616;2022-10-16T03:11:52;100842.56;;;22.09;56.82
35716;BME280;21840;44.920;8.616;2022-10-16T03:14:18;100843.03;;;22.20;56.67
35716;BME280;21840;44.920;8.616;2022-10-16T03:16:43;100841.75;;;22.15;56.68
35716;BME280;21840;44.920;8.616;2022-10-16T03:19:09;100845.19;;;22.03;56.86
35716;BME280;21840;44.920;8.616;2022-10-16T03:21:34;100839.47;;;22.12;56.86
35716;BME280;21840;44.920;8.616;2022-10-16T03:24:00;100852.69;;;22.21;56.41
35716;BME280;21840;44.920;8.616;2022-10-16T03:26:26;100854.72;;;22.18;56.52
35716;BME280;21840;44.920;8.616;2022-10-16T03:28:51;100850.81;;;22.14;56.69
35716;BME280;21840;44.920;8.616;2022-10-16T03:31:17;100853.91;;;22.18;56.60
35716;BME280;21840;44.920;8.616;2022-10-16T03:33:42;100861.03;;;22.04;56.86
35716;BME280;21840;44.920;8.616;2022-10-16T03:36:08;100858.97;;;21.71;57.66
35716;BME280;21840;44.920;8.616;2022-10-16T03:38:33;100869.88;;;22.05;56.77
35716;BME280;21840;44.920;8.616;2022-10-16T03:40:59;100863.72;;;22.04;56.97
35716;BME280;21840;44.920;8.616;2022-10-16T03:43:25;100862.31;;;22.15;56.60
35716;BME280;21840;44.920;8.616;2022-10-16T03:45:51;100868.25;;;22.10;56.89
35716;BME280;21840;44.920;8.616;2022-10-16T03:48:18;100864.78;;;22.10;56.71
35716;BME280;21840;44.920;8.616;2022-10-16T03:50:46;100864.56;;;22.11;56.53
35716;BME280;21840;44.920;8.616;2022-10-16T03:53:14;100857.50;;;21.97;57.24
35716;BME280;21840;44.920;8.616;2022-10-16T03:55:41;100864.50;;;21.98;56.92
35716;BME280;21840;44.920;8.616;2022-10-16T03:58:07;100860.78;;;21.92;56.94
35716;BME280;21840;44.920;8.616;2022-10-16T04:00:32;100862.94;;;21.75;57.46
35716;BME280;21840;44.920;8.616;2022-10-16T04:02:58;100862.34;;;21.80;57.62
35716;BME280;21840;44.920;8.616;2022-10-16T04:05:23;100867.41;;;21.68;57.97
35716;BME280;21840;44.920;8.616;2022-10-16T04:07:49;100854.97;;;21.89;57.35
35716;BME280;21840;44.920;8.616;2022-10-16T04:10:14;100863.00;;;21.89;57.34
35716;BME280;21840;44.920;8.616;2022-10-16T04:12:40;100865.94;;;21.66;57.56
35716;BME280;21840;44.920;8.616;2022-10-16T04:15:06;100869.25;;;21.68;57.90
35716;BME280;21840;44.920;8.616;2022-10-16T04:17:31;100873.31;;;21.92;57.31
35716;BME280;21840;44.920;8.616;2022-10-16T04:19:57;100874.50;;;21.83;57.36
35716;BME280;21840;44.920;8.616;2022-10-16T04:22:22;100885.19;;;21.83;57.38
35716;BME280;21840;44.920;8.616;2022-10-16T04:24:48;100887.44;;;21.79;57.36
35716;BME280;21840;44.920;8.616;2022-10-16T04:27:13;100887.31;;;21.66;57.63
35716;BME280;21840;44.920;8.616;2022-10-16T04:29:41;100882.78;;;21.60;57.99
35716;BME280;21840;44.920;8.616;2022-10-16T04:32:08;100885.28;;;21.68;57.77
35716;BME280;21840;44.920;8.616;2022-10-16T04:34:34;100898.66;;;21.68;57.86
35716;BME280;21840;44.920;8.616;2022-10-16T04:37:00;100909.53;;;21.66;57.76
35716;BME280;21840;44.920;8.616;2022-10-16T04:39:25;100905.88;;;21.74;57.65
35716;BME280;21840;44.920;8.616;2022-10-16T04:41:51;100907.50;;;21.68;57.71
35716;BME280;21840;44.920;8.616;2022-10-16T04:44:16;100913.72;;;21.75;57.60
35716;BME280;21840;44.920;8.616;2022-10-16T04:46:42;100913.41;;;21.64;57.98
35716;BME280;21840;44.920;8.616;2022-10-16T04:49:07;100909.44;;;21.53;58.49
35716;BME280;21840;44.920;8.616;2022-10-16T04:51:33;100912.03;;;21.68;58.16
35716;BME280;21840;44.920;8.616;2022-10-16T04:53:58;100911.75;;;21.84;57.43
35716;BME280;21840;44.920;8.616;2022-10-16T04:56:24;100912.78;;;21.90;57.21
35716;BME280;21840;44.920;8.616;2022-10-16T04:58:49;100917.50;;;21.88;57.46
35716;BME280;21840;44.920;8.616;2022-10-16T05:01:15;100918.91;;;21.84;57.24
35716;BME280;21840;44.920;8.616;2022-10-16T05:03:40;100917.34;;;21.96;57.33
35716;BME280;21840;44.920;8.616;2022-10-16T05:06:07;100912.88;;;22.03;57.38
35716;BME280;21840;44.920;8.616;2022-10-16T05:08:35;100911.22;;;22.02;57.42
35716;BME280;21840;44.920;8.616;2022-10-16T05:11:01;100901.69;;;21.93;58.10
35716;BME280;21840;44.920;8.616;2022-10-16T05:13:30;100904.28;;;21.80;57.80
35716;BME280;21840;44.920;8.616;2022-10-16T05:15:55;100905.47;;;21.70;58.19
35716;BME280;21840;44.920;8.616;2022-10-16T05:18:22;100909.19;;;21.76;57.60
35716;BME280;21840;44.920;8.616;2022-10-16T05:20:48;100915.91;;;21.65;58.11
35716;BME280;21840;44.920;8.616;2022-10-16T05:23:13;100912.41;;;21.65;58.64
35716;BME280;21840;44.920;8.616;2022-10-16T05:25:39;100916.53;;;21.67;58.99
35716;BME280;21840;44.920;8.616;2022-10-16T05:28:04;100920.84;;;21.68;58.87
35716;BME280;21840;44.920;8.616;2022-10-16T05:30:30;100923.34;;;21.70;58.73
35716;BME280;21840;44.920;8.616;2022-10-16T05:32:55;100925.88;;;21.50;59.25
35716;BME280;21840;44.920;8.616;2022-10-16T05:35:21;100922.41;;;21.56;59.36
35716;BME280;21840;44.920;8.616;2022-10-16T05:37:47;100928.47;;;21.71;58.88
35716;BME280;21840;44.920;8.616;2022-10-16T05:40:13;100926.03;;;21.70;58.80
35716;BME280;21840;44.920;8.616;2022-10-16T05:42:39;100932.19;;;21.70;58.56
35716;BME280;21840;44.920;8.616;2022-10-16T05:45:11;100937.47;;;21.64;58.97
35716;BME280;21840;44.920;8.616;2022-10-16T05:47:37;100933.41;;;21.68;59.19
35716;BME280;21840;44.920;8.616;2022-10-16T05:50:04;100934.81;;;21.64;59.24
35716;BME280;21840;44.920;8.616;2022-10-16T05:52:29;100931.97;;;21.44;59.76
35716;BME280;21840;44.920;8.616;2022-10-16T05:54:55;100936.88;;;21.40;59.76
35716;BME280;21840;44.920;8.616;2022-10-16T05:57:20;100933.63;;;21.45;59.69
35716;BME280;21840;44.920;8.616;2022-10-16T05:59:46;100946.84;;;21.53;59.13
35716;BME280;21840;44.920;8.616;2022-10-16T06:02:17;100941.00;;;21.43;59.19
35716;BME280;21840;44.920;8.616;2022-10-16T06:04:42;100947.63;;;21.47;59.15
35716;BME280;21840;44.920;8.616;2022-10-16T06:07:08;100949.94;;;21.57;58.97
35716;BME280;21840;44.920;8.616;2022-10-16T06:09:33;100954.47;;;21.56;58.70
35716;BME280;21840;44.920;8.616;2022-10-16T06:11:59;100955.28;;;21.35;59.60
35716;BME280;21840;44.920;8.616;2022-10-16T06:14:24;100954.81;;;21.46;59.15
35716;BME280;21840;44.920;8.616;2022-10-16T06:16:50;100958.69;;;21.44;59.17
35716;BME280;21840;44.920;8.616;2022-10-16T06:19:15;100963.28;;;21.50;59.14
35716;BME280;21840;44.920;8.616;2022-10-16T06:21:42;100966.34;;;21.47;58.97
35716;BME280;21840;44.920;8.616;2022-10-16T06:24:09;100971.63;;;21.62;58.57
35716;BME280;21840;44.920;8.616;2022-10-16T06:26:35;100969.19;;;21.67;58.16
35716;BME280;21840;44.920;8.616;2022-10-16T06:29:01;100970.44;;;21.71;58.02
35716;BME280;21840;44.920;8.616;2022-10-16T06:31:29;100972.72;;;21.74;57.84
35716;BME280;21840;44.920;8.616;2022-10-16T06:33:59;100980.03;;;21.87;57.44
35716;BME280;21840;44.920;8.616;2022-10-16T06:36:24;100982.41;;;21.75;57.89
35716;BME280;21840;44.920;8.616;2022-10-16T06:38:50;100982.72;;;21.87;57.79
35716;BME280;21840;44.920;8.616;2022-10-16T06:41:17;100990.25;;;22.05;57.49
35716;BME280;21840;44.920;8.616;2022-10-16T06:43:44;100989.31;;;21.91;57.81
35716;BME280;21840;44.920;8.616;2022-10-16T06:46:15;100999.09;;;22.05;57.58
35716;BME280;21840;44.920;8.616;2022-10-16T06:48:41;100993.41;;;21.87;57.76
35716;BME280;21840;44.920;8.616;2022-10-16T06:51:17;101000.59;;;22.14;57.33
35716;BME280;21840;44.920;8.616;2022-10-16T06:53:54;101006.56;;;22.16;57.32
35716;BME280;21840;44.920;8.616;2022-10-16T06:56:26;101013.75;;;22.16;57.42
35716;BME280;21840;44.920;8.616;2022-10-16T06:58:52;101010.16;;;22.24;57.03
35716;BME280;21840;44.920;8.616;2022-10-16T07:01:20;101009.84;;;22.12;57.07
35716;BME280;21840;44.920;8.616;2022-10-16T07:03:48;101020.66;;;22.25;56.93
35716;BME280;21840;44.920;8.616;2022-10-16T07:06:17;101027.22;;;22.23;57.15
35716;BME280;21840;44.920;8.616;2022-10-16T07:08:46;101031.81;;;22.07;57.44
35716;BME280;21840;44.920;8.616;2022-10-16T07:11:15;101042.66;;;22.21;57.06
35716;BME280;21840;44.920;8.616;2022-10-16T07:13:43;101041.09;;;22.33;56.45
35716;BME280;21840;44.920;8.616;2022-10-16T07:16:12;101041.78;;;22.42;56.42
35716;BME280;21840;44.920;8.616;2022-10-16T07:18:38;101047.19;;;22.55;56.20
35716;BME280;21840;44.920;8.616;2022-10-16T07:21:19;101044.69;;;22.47;56.02
35716;BME280;21840;44.920;8.616;2022-10-16T07:23:50;101052.59;;;22.61;55.60
35716;BME280;21840;44.920;8.616;2022-10-16T07:26:16;101043.13;;;22.59;55.59
35716;BME280;21840;44.920;8.616;2022-10-16T07:28:43;101052.56;;;22.55;55.83
35716;BME280;21840;44.920;8.616;2022-10-16T07:31:11;101055.88;;;22.57;56.07
35716;BME280;21840;44.920;8.616;2022-10-16T07:33:37;101060.47;;;22.76;55.73
35716;BME280;21840;44.920;8.616;2022-10-16T07:36:04;101056.75;;;22.71;55.56
35716;BME280;21840;44.920;8.616;2022-10-16T07:38:30;101072.00;;;22.70;55.58
35716;BME280;21840;44.920;8.616;2022-10-16T07:41:00;101067.38;;;22.92;54.98
35716;BME280;21840;44.920;8.616;2022-10-16T07:43:26;101066.75;;;22.90;54.96
35716;BME280;21840;44.920;8.616;2022-10-16T07:45:53;101074.38;;;22.93;55.23
35716;BME280;21840;44.920;8.616;2022-10-16T07:48:19;101077.88;;;22.87;55.37
35716;BME280;21840;44.920;8.616;2022-10-16T07:50:45;101079.84;;;23.07;54.53
35716;BME280;21840;44.920;8.616;2022-10-16T07:53:14;101072.19;;;23.03;54.55
35716;BME280;21840;44.920;8.616;2022-10-16T07:55:39;101080.28;;;23.17;54.32
35716;BME280;21840;44.920;8.616;2022-10-16T07:58:05;101070.44;;;23.24;54.14
35716;BME280;21840;44.920;8.616;2022-10-16T08:00:32;101064.81;;;23.12;54.39
35716;BME280;21840;44.920;8.616;2022-10-16T08:02:58;101073.94;;;23.24;54.05
35716;BME280;21840;44.920;8.616;2022-10-16T08:05:27;101078.09;;;23.40;53.83
35716;BME280;21840;44.920;8.616;2022-10-16T08:07:53;101093.19;;;23.55;53.53
35716;BME280;21840;44.920;8.616;2022-10-16T08:10:20;101089.38;;;23.22;53.82
35716;BME280;21840;44.920;8.616;2022-10-16T08:12:47;101091.41;;;23.14;54.54
35716;BME280;21840;44.920;8.616;2022-10-16T08:15:13;101097.28;;;23.51;53.80
35716;BME280;21840;44.920;8.616;2022-10-16T08:17:38;101095.63;;;23.43;53.53
35716;BME280;21840;44.920;8.616;2022-10-16T08:20:04;101094.44;;;23.65;53.21
35716;BME280;21840;44.920;8.616;2022-10-16T08:22:30;101099.84;;;23.79;52.70
35716;BME280;21840;44.920;8.616;2022-10-16T08:24:55;101097.81;;;23.74;52.69
35716;BME280;21840;44.920;8.616;2022-10-16T08:27:21;101099.06;;;24.18;51.57
35716;BME280;21840;44.920;8.616;2022-10-16T08:29:48;101097.63;;;24.09;51.81
35716;BME280;21840;44.920;8.616;2022-10-16T08:32:14;101106.09;;;24.19;51.34
35716;BME280;21840;44.920;8.616;2022-10-16T08:34:39;101099.69;;;24.27;50.89
35716;BME280;21840;44.920;8.616;2022-10-16T08:37:08;101103.81;;;24.43;51.25
35716;BME280;21840;44.920;8.616;2022-10-16T08:39:36;101110.41;;;24.33;51.30
35716;BME280;21840;44.920;8.616;2022-10-16T08:45:05;101112.53;;;24.51;51.18
35716;BME280;21840;44.920;8.616;2022-10-16T08:50:26;101118.28;;;24.55;51.09
35716;BME280;21840;44.920;8.616;2022-10-16T08:52:53;101110.84;;;24.37;51.36
35716;BME280;21840;44.920;8.616;2022-10-16T08:55:41;101116.63;;;24.47;51.47
35716;BME280;21840;44.920;8.616;2022-10-16T08:58:15;101118.72;;;24.52;51.63
35716;BME280;21840;44.920;8.616;2022-10-16T09:00:42;101117.03;;;24.64;51.04
35716;BME280;21840;44.920;8.616;2022-10-16T09:09:14;101132.34;;;24.64;50.53
35716;BME280;21840;44.920;8.616;2022-10-16T09:23:23;101140.31;;;24.97;49.92
35716;BME280;21840;44.920;8.616;2022-10-16T09:25:51;101135.31;;;25.07;49.77
35716;BME280;21840;44.920;8.616;2022-10-16T09:28:17;101138.81;;;25.08;49.71
35716;BME280;21840;44.920;8.616;2022-10-16T09:30:44;101141.31;;;25.09;49.42
35716;BME280;21840;44.920;8.616;2022-10-16T09:33:11;101144.63;;;25.05;49.44
35716;BME280;21840;44.920;8.616;2022-10-16T09:38:06;101143.44;;;24.94;49.47
35716;BME280;21840;44.920;8.616;2022-10-16T09:40:37;101143.78;;;25.17;48.87
35716;BME280;21840;44.920;8.616;2022-10-16T09:45:41;101148.72;;;25.21;48.66
35716;BME280;21840;44.920;8.616;2022-10-16T09:48:11;101141.22;;;25.36;48.58
35716;BME280;21840;44.920;8.616;2022-10-16T09:50:37;101137.19;;;25.00;48.85
35716;BME280;21840;44.920;8.616;2022-10-16T09:53:14;101137.56;;;25.24;48.38
35716;BME280;21840;44.920;8.616;2022-10-16T09:55:52;101142.25;;;25.42;47.96
35716;BME280;21840;44.920;8.616;2022-10-16T09:58:21;101137.44;;;25.50;47.83
35716;BME280;21840;44.920;8.616;2022-10-16T10:00:50;101140.84;;;25.26;48.40
35716;BME280;21840;44.920;8.616;2022-10-16T10:03:37;101151.06;;;25.55;47.66
35716;BME280;21840;44.920;8.616;2022-10-16T10:06:30;101145.03;;;25.22;48.23
35716;BME280;21840;44.920;8.616;2022-10-16T10:14:25;101144.91;;;24.70;49.46
35716;BME280;21840;44.920;8.616;2022-10-16T10:17:02;101147.66;;;25.28;48.63
35716;BME280;21840;44.920;8.616;2022-10-16T10:19:46;101135.28;;;25.66;47.61
35716;BME280;21840;44.920;8.616;2022-10-16T10:22:39;101137.75;;;25.74;47.08
35716;BME280;21840;44.920;8.616;2022-10-16T10:41:39;101134.13;;;25.48;47.72
35716;BME280;21840;44.920;8.616;2022-10-16T10:47:04;101132.41;;;25.60;47.58
35716;BME280;21840;44.920;8.616;2022-10-16T10:50:01;101135.44;;;25.77;47.19
35716;BME280;21840;44.920;8.616;2022-10-16T10:52:35;101132.09;;;25.89;46.70
35716;BME280;21840;44.920;8.616;2022-10-16T10:55:23;101132.00;;;25.64;47.09
35716;BME280;21840;44.920;8.616;2022-10-16T11:06:07;101121.00;;;25.65;47.46
35716;BME280;21840;44.920;8.616;2022-10-16T11:08:41;101126.41;;;25.65;47.23
35716;BME280;21840;44.920;8.616;2022-10-16T11:11:25;101126.91;;;25.87;47.07
35716;BME280;21840;44.920;8.616;2022-10-16T11:16:39;101132.09;;;25.89;47.19
35716;BME280;21840;44.920;8.616;2022-10-16T11:19:14;101130.22;;;25.82;47.04
35716;BME280;21840;44.920;8.616;2022-10-16T11:22:07;101126.00;;;26.00;46.71
35716;BME280;21840;44.920;8.616;2022-10-16T11:24:42;101126.25;;;26.23;46.22
35716;BME280;21840;44.920;8.616;2022-10-16T11:27:15;101126.50;;;26.15;46.18
35716;BME280;21840;44.920;8.616;2022-10-16T11:30:04;101120.50;;;26.13;46.45
35716;BME280;21840;44.920;8.616;2022-10-16T11:41:15;101114.78;;;26.03;46.42
35716;BME280;21840;44.920;8.616;2022-10-16T11:43:52;101110.41;;;26.34;46.04
35716;BME280;21840;44.920;8.616;2022-10-16T11:46:24;101108.59;;;26.53;45.58
35716;BME280;21840;44.920;8.616;2022-10-16T11:49:02;101103.25;;;26.71;44.61
35716;BME280;21840;44.920;8.616;2022-10-16T11:54:32;101100.84;;;26.81;44.44
35716;BME280;21840;44.920;8.616;2022-10-16T11:57:09;101087.06;;;26.89;44.18
35716;BME280;21840;44.920;8.616;2022-10-16T12:00:00;101092.94;;;27.17;43.78
35716;BME280;21840;44.920;8.616;2022-10-16T12:05:44;101087.13;;;27.50;43.00
35716;BME280;21840;44.920;8.616;2022-10-16T12:08:21;101083.97;;;27.53;41.91
35716;BME280;21840;44.920;8.616;2022-10-16T12:10:51;101096.91;;;27.32;42.62
35716;BME280;21840;44.920;8.616;2022-10-16T12:16:18;101083.78;;;27.18;42.57
35716;BME280;21840;44.920;8.616;2022-10-16T12:19:23;101083.88;;;27.29;41.92
35716;BME280;21840;44.920;8.616;2022-10-16T12:21:50;101084.81;;;27.23;41.84
35716;BME280;21840;44.920;8.616;2022-10-16T12:24:41;101089.59;;;27.21;42.07
35716;BME280;21840;44.920;8.616;2022-10-16T12:27:29;101076.03;;;26.73;42.22
35716;BME280;21840;44.920;8.616;2022-10-16T12:30:01;101080.84;;;26.45;43.40
35716;BME280;21840;44.920;8.616;2022-10-16T12:32:36;101078.50;;;26.93;42.42
35716;BME280;21840;44.920;8.616;2022-10-16T12:35:04;101071.91;;;27.07;42.34
35716;BME280;21840;44.920;8.616;2022-10-16T12:37:33;101082.09;;;27.05;42.26
35716;BME280;21840;44.920;8.616;2022-10-16T12:40:04;101079.84;;;27.20;42.20
35716;BME280;21840;44.920;8.616;2022-10-16T12:42:48;101078.06;;;27.14;41.92
35716;BME280;21840;44.920;8.616;2022-10-16T12:45:26;101077.16;;;27.20;42.10
35716;BME280;21840;44.920;8.616;2022-10-16T12:47:53;101078.63;;;27.35;41.87
35716;BME280;21840;44.920;8.616;2022-10-16T12:52:56;101068.78;;;27.40;41.62
35716;BME280;21840;44.920;8.616;2022-10-16T12:55:22;101071.06;;;27.43;41.85
35716;BME280;21840;44.920;8.616;2022-10-16T13:00:57;101070.13;;;27.49;42.09
35716;BME280;21840;44.920;8.616;2022-10-16T13:05:59;101065.06;;;27.53;41.99
35716;BME280;21840;44.920;8.616;2022-10-16T13:09:02;101069.31;;;27.49;42.20
35716;BME280;21840;44.920;8.616;2022-10-16T13:20:19;101062.50;;;27.46;41.88
35716;BME280;21840;44.920;8.616;2022-10-16T13:28:48;101068.34;;;27.43;42.31
35716;BME280;21840;44.920;8.616;2022-10-16T13:31:18;101071.88;;;27.44;42.30
35716;BME280;21840;44.920;8.616;2022-10-16T13:33:50;101079.09;;;27.31;42.47
35716;BME280;21840;44.920;8.616;2022-10-16T13:36:22;101070.47;;;27.23;42.55
35716;BME280;21840;44.920;8.616;2022-10-16T13:38:48;101075.75;;;27.48;42.31
35716;BME280;21840;44.920;8.616;2022-10-16T13:41:24;101074.88;;;27.36;42.53
35716;BME280;21840;44.920;8.616;2022-10-16T13:43:51;101082.13;;;27.23;42.73
35716;BME280;21840;44.920;8.616;2022-10-16T13:46:20;101087.25;;;27.25;42.63
35716;BME280;21840;44.920;8.616;2022-10-16T13:49:11;101080.72;;;27.32;41.71
35716;BME280;21840;44.920;8.616;2022-10-16T13:51:37;101084.91;;;27.47;41.67
35716;BME280;21840;44.920;8.616;2022-10-16T13:54:03;101078.91;;;27.45;41.92
35716;BME280;21840;44.920;8.616;2022-10-16T13:56:31;101088.03;;;27.74;41.31
35716;BME280;21840;44.920;8.616;2022-10-16T13:58:59;101088.47;;;28.01;41.04
35716;BME280;21840;44.920;8.616;2022-10-16T14:01:31;101088.22;;;27.91;40.79
35716;BME280;21840;44.920;8.616;2022-10-16T14:04:06;101084.66;;;27.79;41.31
35716;BME280;21840;44.920;8.616;2022-10-16T14:06:33;101082.72;;;28.09;40.73
35716;BME280;21840;44.920;8.616;2022-10-16T14:09:06;101089.88;;;28.04;40.15
35716;BME280;21840;44.920;8.616;2022-10-16T14:11:45;101092.34;;;27.93;40.63
35716;BME280;21840;44.920;8.616;2022-10-16T14:14:12;101092.31;;;27.82;40.40
35716;BME280;21840;44.920;8.616;2022-10-16T14:16:40;101095.75;;;28.12;39.96
35716;BME280;21840;44.920;8.616;2022-10-16T14:19:18;101093.28;;;27.99;39.69
35716;BME280;21840;44.920;8.616;2022-10-16T14:21:44;101090.81;;;28.09;39.05
35716;BME280;21840;44.920;8.616;2022-10-16T14:24:19;101089.78;;;28.34;39.18
35716;BME280;21840;44.920;8.616;2022-10-16T14:26:50;101087.44;;;28.61;38.56
35716;BME280;21840;44.920;8.616;2022-10-16T14:29:20;101091.75;;;28.86;37.77
35716;BME280;21840;44.920;8.616;2022-10-16T14:32:04;101087.06;;;28.81;38.32
35716;BME280;21840;44.920;8.616;2022-10-16T14:39:33;101086.25;;;28.33;38.48
35716;BME280;21840;44.920;8.616;2022-10-16T14:41:58;101091.28;;;28.18;38.81
35716;BME280;21840;44.920;8.616;2022-10-16T14:44:29;101093.63;;;27.91;39.28
35716;BME280;21840;44.920;8.616;2022-10-16T14:46:56;101095.34;;;27.85;39.40
35716;BME280;21840;44.920;8.616;2022-10-16T14:49:23;101101.84;;;27.96;39.46
35716;BME280;21840;44.920;8.616;2022-10-16T14:51:49;101100.19;;;27.95;39.43
35716;BME280;21840;44.920;8.616;2022-10-16T14:54:17;101096.06;;;27.92;39.35
35716;BME280;21840;44.920;8.616;2022-10-16T14:59:17;101108.97;;;27.90;39.34
35716;BME280;21840;44.920;8.616;2022-10-16T15:01:45;101106.06;;;27.92;39.42
35716;BME280;21840;44.920;8.616;2022-10-16T15:04:11;101100.66;;;27.92;39.42
35716;BME280;21840;44.920;8.616;2022-10-16T15:06:37;101097.59;;;28.00;39.03
35716;BME280;21840;44.920;8.616;2022-10-16T15:09:03;101101.03;;;28.07;39.05
35716;BME280;21840;44.920;8.616;2022-10-16T15:11:31;101107.03;;;28.09;38.95
35716;BME280;21840;44.920;8.616;2022-10-16T15:13:57;101106.78;;;27.99;39.35
35716;BME280;21840;44.920;8.616;2022-10-16T15:16:24;101107.00;;;27.98;39.29
35716;BME280;21840;44.920;8.616;2022-10-16T15:18:50;101106.53;;;28.01;38.99
35716;BME280;21840;44.920;8.616;2022-10-16T15:21:30;101107.97;;;28.03;39.07